KGZL

Stigler Regional Airport

Stigler, Oklahoma, USA
METAR KGZL 171835Z AUTO 10007KT 10SM CLR 21/M02 A3039 RMK AO2
Observed Flight Rules
Oct-17 @ 18:35 UTC (25 minutes ago) Visual Flight Rules
Wind Visibility Clouds
100° at 7 knots 10 miles
  • Clear skies
Temperatures Readings
Current 21°C / 70°F
Dewpoint -2°C / 28°F
Humidity 21%
Altimeter 30.39" Hg
Pressure 1029 hPa
Elevation 183
METAR KGZL 171835Z AUTO 10007KT 10SM CLR 21/M02 A3039 RMK AO2
Observed Flight Rules
Oct-17 @ 18:35 UTC
(25 minutes ago)
VFR
Wind Visibility
100° at 7 knots 10 miles
Clouds
  • Clear skies
Temperature Dewpoint
21°C / 70°F -2°C / 28°F
Humidity Altimeter Pressure
21% 30.39" Hg 1029 hPa